SBRB/RBR METAR and TAF weather

Enter ICAO airport designator
Station Type Date Time Source
SBRB METAR 2019/06/26 16:00 UTC NOAA

SBRB 261600Z 32005KT 9999 -RA FEW040 BKN080 25/23 Q1014


Station Type Date Time Source
SBRB Decoded METAR 2019/06/26 16:00 UTC NOAA

Rio Branco, Brazil (SBRB) 10-00S 067-48W 143M
Jun 26, 2019 - 12:00 PM EDT / 2019.06.26 1600 UTC
Wind: from the NW (320 degrees) at 6 MPH (5 KT):0
Visibility: greater than 7 mile(s):0
Sky conditions: mostly cloudy
Weather: light rain
Temperature: 77 F (25 C)
Dew Point: 73 F (23 C)
Relative Humidity: 88%
Pressure (altimeter): 29.94 in. Hg (1014 hPa)
ob: SBRB 261600Z 32005KT 9999 -RA FEW040 BKN080 25/23 Q1014
cycle: 16

Station Type Date Time Source
SBRB TAF 2019/06/26 12:58 UTC NOAA

TAF SBRB 260953Z 2612/2624 35005KT 9999 FEW035 TX31/2618Z TN26/2624Z
BECMG 2616/2618 BKN030 FEW035TCU
BECMG 2618/2620 4000 TSRA BKN030 FEW035CB
BECMG 2622/2624 9999 NSW FEW030
RMK PHQ

Example: see airport list